sensor_id;sensor_type;location;lat;lon;timestamp;pressure;altitude;pressure_sealevel;temperature;humidity
77381;BME280;66439;50.106;10.996;2023-03-14T00:00:33;96763.21;;;11.66;70.31
77381;BME280;66439;50.106;10.996;2023-03-14T00:02:54;96764.69;;;11.62;70.45
77381;BME280;66439;50.106;10.996;2023-03-14T00:04:57;96774.45;;;11.58;70.54
77381;BME280;66439;50.106;10.996;2023-03-14T00:07:00;96775.90;;;11.53;70.44
77381;BME280;66439;50.106;10.996;2023-03-14T00:09:02;96771.85;;;11.53;70.38
77381;BME280;66439;50.106;10.996;2023-03-14T00:11:19;96778.39;;;11.52;70.23
77381;BME280;66439;50.106;10.996;2023-03-14T00:13:23;96781.09;;;11.52;70.51
77381;BME280;66439;50.106;10.996;2023-03-14T00:15:28;96789.18;;;11.50;70.46
77381;BME280;66439;50.106;10.996;2023-03-14T00:17:31;96806.34;;;11.48;70.47
77381;BME280;66439;50.106;10.996;2023-03-14T00:19:34;96825.90;;;11.44;70.58
77381;BME280;66439;50.106;10.996;2023-03-14T00:21:39;96845.44;;;11.40;70.49
77381;BME280;66439;50.106;10.996;2023-03-14T00:23:44;96856.23;;;11.37;70.65
77381;BME280;66439;50.106;10.996;2023-03-14T00:25:48;96866.83;;;11.33;70.54
77381;BME280;66439;50.106;10.996;2023-03-14T00:27:51;96867.73;;;11.30;70.63
77381;BME280;66439;50.106;10.996;2023-03-14T00:29:54;96868.61;;;11.29;70.73
77381;BME280;66439;50.106;10.996;2023-03-14T00:31:57;96866.71;;;11.30;70.85
77381;BME280;66439;50.106;10.996;2023-03-14T00:34:00;96867.49;;;11.32;70.73
77381;BME280;66439;50.106;10.996;2023-03-14T00:36:05;96872.40;;;11.30;70.78
77381;BME280;66439;50.106;10.996;2023-03-14T00:38:08;96870.30;;;11.29;71.03
77381;BME280;66439;50.106;10.996;2023-03-14T00:40:12;96873.05;;;11.28;70.95
77381;BME280;66439;50.106;10.996;2023-03-14T00:42:15;96876.67;;;11.25;70.96
77381;BME280;66439;50.106;10.996;2023-03-14T00:44:19;96875.33;;;11.25;70.98
77381;BME280;66439;50.106;10.996;2023-03-14T00:46:22;96881.02;;;11.23;71.09
77381;BME280;66439;50.106;10.996;2023-03-14T00:48:25;96889.23;;;11.21;71.03
77381;BME280;66439;50.106;10.996;2023-03-14T00:50:28;96893.97;;;11.19;71.04
77381;BME280;66439;50.106;10.996;2023-03-14T00:52:31;96893.09;;;11.17;71.01
77381;BME280;66439;50.106;10.996;2023-03-14T00:54:34;96890.16;;;11.17;71.15
77381;BME280;66439;50.106;10.996;2023-03-14T00:56:37;96886.42;;;11.17;71.25
77381;BME280;66439;50.106;10.996;2023-03-14T00:58:40;96889.42;;;11.16;71.27
77381;BME280;66439;50.106;10.996;2023-03-14T01:00:44;96892.55;;;11.15;71.33
77381;BME280;66439;50.106;10.996;2023-03-14T01:02:47;96886.84;;;11.14;71.36
77381;BME280;66439;50.106;10.996;2023-03-14T01:04:51;96884.09;;;11.14;71.38
77381;BME280;66439;50.106;10.996;2023-03-14T01:06:53;96879.90;;;11.15;71.25
77381;BME280;66439;50.106;10.996;2023-03-14T01:08:57;96877.03;;;11.15;71.27
77381;BME280;66439;50.106;10.996;2023-03-14T01:11:28;96869.02;;;11.13;71.13
77381;BME280;66439;50.106;10.996;2023-03-14T01:13:33;96870.11;;;11.12;71.20
77381;BME280;66439;50.106;10.996;2023-03-14T01:15:38;96865.58;;;11.12;71.00
77381;BME280;66439;50.106;10.996;2023-03-14T01:17:41;96860.26;;;11.14;70.86
77381;BME280;66439;50.106;10.996;2023-03-14T01:19:44;96862.02;;;11.16;70.88
77381;BME280;66439;50.106;10.996;2023-03-14T01:21:46;96859.41;;;11.19;71.03
77381;BME280;66439;50.106;10.996;2023-03-14T01:23:51;96854.63;;;11.22;71.08
77381;BME280;66439;50.106;10.996;2023-03-14T01:25:54;96856.88;;;11.25;70.77
77381;BME280;66439;50.106;10.996;2023-03-14T01:27:57;96857.02;;;11.29;70.80
77381;BME280;66439;50.106;10.996;2023-03-14T01:30:01;96853.71;;;11.32;70.72
77381;BME280;66439;50.106;10.996;2023-03-14T01:32:05;96850.33;;;11.35;70.41
77381;BME280;66439;50.106;10.996;2023-03-14T01:34:08;96852.39;;;11.35;70.30
77381;BME280;66439;50.106;10.996;2023-03-14T01:36:11;96860.45;;;11.33;70.33
77381;BME280;66439;50.106;10.996;2023-03-14T01:38:14;96859.35;;;11.32;70.25
77381;BME280;66439;50.106;10.996;2023-03-14T01:40:17;96854.34;;;11.29;70.45
77381;BME280;66439;50.106;10.996;2023-03-14T01:42:22;96849.63;;;11.27;70.25
77381;BME280;66439;50.106;10.996;2023-03-14T01:44:25;96842.23;;;11.27;70.37
77381;BME280;66439;50.106;10.996;2023-03-14T01:46:34;96841.03;;;11.28;70.36
77381;BME280;66439;50.106;10.996;2023-03-14T01:49:06;96832.63;;;11.30;70.18
77381;BME280;66439;50.106;10.996;2023-03-14T01:51:27;96826.16;;;11.32;70.23
77381;BME280;66439;50.106;10.996;2023-03-14T01:53:34;96816.74;;;11.32;70.35
77381;BME280;66439;50.106;10.996;2023-03-14T01:55:38;96816.05;;;11.33;70.22
77381;BME280;66439;50.106;10.996;2023-03-14T01:58:10;96808.17;;;11.34;70.29
77381;BME280;66439;50.106;10.996;2023-03-14T02:00:22;96807.30;;;11.33;70.01
77381;BME280;66439;50.106;10.996;2023-03-14T02:02:26;96803.23;;;11.31;70.09
77381;BME280;66439;50.106;10.996;2023-03-14T02:04:33;96798.47;;;11.30;70.11
77381;BME280;66439;50.106;10.996;2023-03-14T02:06:46;96797.66;;;11.27;69.96
77381;BME280;66439;50.106;10.996;2023-03-14T02:08:52;96792.27;;;11.24;69.96
77381;BME280;66439;50.106;10.996;2023-03-14T02:10:58;96788.84;;;11.22;69.97
77381;BME280;66439;50.106;10.996;2023-03-14T02:13:30;96786.88;;;11.20;69.85
77381;BME280;66439;50.106;10.996;2023-03-14T02:15:47;96784.08;;;11.21;69.80
77381;BME280;66439;50.106;10.996;2023-03-14T02:18:09;96783.39;;;11.24;69.82
77381;BME280;66439;50.106;10.996;2023-03-14T02:22:31;96780.84;;;11.29;69.82
77381;BME280;66439;50.106;10.996;2023-03-14T02:27:16;96785.23;;;11.31;69.86
77381;BME280;66439;50.106;10.996;2023-03-14T02:29:21;96777.05;;;11.32;69.81
77381;BME280;66439;50.106;10.996;2023-03-14T02:31:25;96778.08;;;11.32;69.80
77381;BME280;66439;50.106;10.996;2023-03-14T02:33:28;96775.36;;;11.32;69.75
77381;BME280;66439;50.106;10.996;2023-03-14T02:35:37;96777.46;;;11.31;69.78
77381;BME280;66439;50.106;10.996;2023-03-14T02:39:59;96772.47;;;11.23;69.70
77381;BME280;66439;50.106;10.996;2023-03-14T02:42:03;96766.80;;;11.21;69.75
77381;BME280;66439;50.106;10.996;2023-03-14T02:44:05;96759.84;;;11.22;69.63
77381;BME280;66439;50.106;10.996;2023-03-14T02:46:15;96751.89;;;11.23;69.75
77381;BME280;66439;50.106;10.996;2023-03-14T02:48:26;96747.22;;;11.25;69.75
77381;BME280;66439;50.106;10.996;2023-03-14T02:50:31;96745.38;;;11.25;69.74
77381;BME280;66439;50.106;10.996;2023-03-14T02:52:36;96748.69;;;11.25;69.71
77381;BME280;66439;50.106;10.996;2023-03-14T02:54:38;96747.00;;;11.26;69.72
77381;BME280;66439;50.106;10.996;2023-03-14T02:56:42;96735.14;;;11.23;69.56
77381;BME280;66439;50.106;10.996;2023-03-14T02:58:48;96741.81;;;11.21;69.56
77381;BME280;66439;50.106;10.996;2023-03-14T03:01:00;96735.11;;;11.19;69.74
77381;BME280;66439;50.106;10.996;2023-03-14T03:03:03;96727.41;;;11.17;69.60
77381;BME280;66439;50.106;10.996;2023-03-14T03:05:08;96732.65;;;11.15;69.75
77381;BME280;66439;50.106;10.996;2023-03-14T03:07:11;96733.50;;;11.13;69.75
77381;BME280;66439;50.106;10.996;2023-03-14T03:09:16;96745.33;;;11.11;69.82
77381;BME280;66439;50.106;10.996;2023-03-14T03:11:19;96750.23;;;11.11;69.78
77381;BME280;66439;50.106;10.996;2023-03-14T03:13:21;96742.34;;;11.11;69.59
77381;BME280;66439;50.106;10.996;2023-03-14T03:15:26;96745.02;;;11.14;69.74
77381;BME280;66439;50.106;10.996;2023-03-14T03:17:29;96747.76;;;11.16;69.74
77381;BME280;66439;50.106;10.996;2023-03-14T03:19:33;96756.76;;;11.16;69.53
77381;BME280;66439;50.106;10.996;2023-03-14T03:21:36;96752.69;;;11.17;69.60
77381;BME280;66439;50.106;10.996;2023-03-14T03:23:39;96753.55;;;11.17;69.45
77381;BME280;66439;50.106;10.996;2023-03-14T03:25:48;96755.09;;;11.15;69.30
77381;BME280;66439;50.106;10.996;2023-03-14T03:27:51;96751.65;;;11.16;69.35
77381;BME280;66439;50.106;10.996;2023-03-14T03:29:53;96743.90;;;11.17;69.33
77381;BME280;66439;50.106;10.996;2023-03-14T03:31:56;96741.05;;;11.16;69.12
77381;BME280;66439;50.106;10.996;2023-03-14T03:34:00;96740.64;;;11.14;69.07
77381;BME280;66439;50.106;10.996;2023-03-14T03:36:03;96746.20;;;11.13;69.11
77381;BME280;66439;50.106;10.996;2023-03-14T03:38:09;96730.98;;;11.12;69.07
77381;BME280;66439;50.106;10.996;2023-03-14T03:40:14;96729.20;;;11.11;69.27
77381;BME280;66439;50.106;10.996;2023-03-14T03:42:17;96717.36;;;11.11;69.21
77381;BME280;66439;50.106;10.996;2023-03-14T03:44:21;96711.98;;;11.13;69.13
77381;BME280;66439;50.106;10.996;2023-03-14T03:46:24;96718.77;;;11.15;69.17
77381;BME280;66439;50.106;10.996;2023-03-14T03:48:28;96725.68;;;11.15;69.04
77381;BME280;66439;50.106;10.996;2023-03-14T03:50:31;96720.04;;;11.15;69.17
77381;BME280;66439;50.106;10.996;2023-03-14T03:52:35;96726.16;;;11.15;69.14
77381;BME280;66439;50.106;10.996;2023-03-14T03:54:38;96718.83;;;11.17;69.14
77381;BME280;66439;50.106;10.996;2023-03-14T03:56:41;96718.83;;;11.21;69.13
77381;BME280;66439;50.106;10.996;2023-03-14T03:58:43;96725.61;;;11.23;69.20
77381;BME280;66439;50.106;10.996;2023-03-14T04:00:46;96723.92;;;11.20;69.01
77381;BME280;66439;50.106;10.996;2023-03-14T04:02:49;96721.37;;;11.20;68.94
77381;BME280;66439;50.106;10.996;2023-03-14T04:04:53;96717.70;;;11.23;68.85
77381;BME280;66439;50.106;10.996;2023-03-14T04:06:58;96721.37;;;11.23;68.95
77381;BME280;66439;50.106;10.996;2023-03-14T04:09:01;96723.36;;;11.25;68.77
77381;BME280;66439;50.106;10.996;2023-03-14T04:11:12;96710.59;;;11.27;68.59
77381;BME280;66439;50.106;10.996;2023-03-14T04:13:32;96710.47;;;11.29;68.50
77381;BME280;66439;50.106;10.996;2023-03-14T04:15:35;96705.27;;;11.30;68.55
77381;BME280;66439;50.106;10.996;2023-03-14T04:17:46;96696.96;;;11.29;68.57
77381;BME280;66439;50.106;10.996;2023-03-14T04:19:51;96698.47;;;11.28;68.57
77381;BME280;66439;50.106;10.996;2023-03-14T04:21:57;96708.58;;;11.30;68.56
77381;BME280;66439;50.106;10.996;2023-03-14T04:24:06;96705.40;;;11.31;68.51
77381;BME280;66439;50.106;10.996;2023-03-14T04:26:11;96692.68;;;11.31;68.62
77381;BME280;66439;50.106;10.996;2023-03-14T04:28:14;96693.80;;;11.30;68.59
77381;BME280;66439;50.106;10.996;2023-03-14T04:30:17;96695.30;;;11.25;68.72
77381;BME280;66439;50.106;10.996;2023-03-14T04:32:27;96687.23;;;11.21;68.76
77381;BME280;66439;50.106;10.996;2023-03-14T04:34:31;96682.20;;;11.19;68.91
77381;BME280;66439;50.106;10.996;2023-03-14T04:36:33;96671.06;;;11.18;68.71
77381;BME280;66439;50.106;10.996;2023-03-14T04:38:41;96667.10;;;11.14;68.93
77381;BME280;66439;50.106;10.996;2023-03-14T04:40:44;96664.62;;;11.09;69.16
77381;BME280;66439;50.106;10.996;2023-03-14T04:42:48;96661.56;;;11.08;69.14
77381;BME280;66439;50.106;10.996;2023-03-14T04:44:52;96662.84;;;11.08;68.93
77381;BME280;66439;50.106;10.996;2023-03-14T04:46:57;96657.98;;;11.07;69.02
77381;BME280;66439;50.106;10.996;2023-03-14T04:49:00;96653.42;;;11.05;68.94
77381;BME280;66439;50.106;10.996;2023-03-14T04:51:03;96660.38;;;11.05;68.94
77381;BME280;66439;50.106;10.996;2023-03-14T04:53:08;96664.64;;;11.05;68.94
77381;BME280;66439;50.106;10.996;2023-03-14T04:55:14;96662.14;;;11.06;68.92
77381;BME280;66439;50.106;10.996;2023-03-14T04:57:17;96661.33;;;11.07;69.06
77381;BME280;66439;50.106;10.996;2023-03-14T04:59:21;96662.47;;;11.07;68.98
77381;BME280;66439;50.106;10.996;2023-03-14T05:01:25;96654.30;;;11.06;69.11
77381;BME280;66439;50.106;10.996;2023-03-14T05:03:55;96659.08;;;11.04;68.96
77381;BME280;66439;50.106;10.996;2023-03-14T05:06:07;96662.08;;;10.99;69.07
77381;BME280;66439;50.106;10.996;2023-03-14T05:08:29;96661.05;;;10.95;69.11
77381;BME280;66439;50.106;10.996;2023-03-14T05:10:59;96664.64;;;10.91;69.06
77381;BME280;66439;50.106;10.996;2023-03-14T05:13:20;96668.95;;;10.89;69.28
77381;BME280;66439;50.106;10.996;2023-03-14T05:15:43;96674.27;;;10.89;69.25
77381;BME280;66439;50.106;10.996;2023-03-14T05:18:09;96664.50;;;10.90;69.24
77381;BME280;66439;50.106;10.996;2023-03-14T05:20:33;96658.21;;;10.88;69.51
77381;BME280;66439;50.106;10.996;2023-03-14T05:22:56;96657.48;;;10.90;69.53
77381;BME280;66439;50.106;10.996;2023-03-14T05:25:19;96654.64;;;10.93;69.34
77381;BME280;66439;50.106;10.996;2023-03-14T05:27:29;96657.58;;;10.94;69.51
77381;BME280;66439;50.106;10.996;2023-03-14T05:29:39;96654.31;;;10.93;69.63
77381;BME280;66439;50.106;10.996;2023-03-14T05:32:10;96653.06;;;10.94;69.59
77381;BME280;66439;50.106;10.996;2023-03-14T05:34:39;96655.40;;;10.92;69.48
77381;BME280;66439;50.106;10.996;2023-03-14T05:37:02;96657.91;;;10.89;69.45
77381;BME280;66439;50.106;10.996;2023-03-14T05:39:28;96657.73;;;10.86;69.47
77381;BME280;66439;50.106;10.996;2023-03-14T05:41:55;96652.86;;;10.84;69.53
77381;BME280;66439;50.106;10.996;2023-03-14T05:44:05;96651.98;;;10.83;69.39
77381;BME280;66439;50.106;10.996;2023-03-14T05:46:26;96651.27;;;10.84;69.63
77381;BME280;66439;50.106;10.996;2023-03-14T05:48:47;96649.67;;;10.82;69.56
77381;BME280;66439;50.106;10.996;2023-03-14T05:51:08;96642.80;;;10.81;69.48
77381;BME280;66439;50.106;10.996;2023-03-14T05:53:43;96642.33;;;10.82;69.45
77381;BME280;66439;50.106;10.996;2023-03-14T05:56:12;96638.35;;;10.82;69.61
77381;BME280;66439;50.106;10.996;2023-03-14T05:58:35;96630.09;;;10.80;69.72
77381;BME280;66439;50.106;10.996;2023-03-14T06:00:57;96631.86;;;10.82;69.57
77381;BME280;66439;50.106;10.996;2023-03-14T06:03:10;96635.36;;;10.81;69.63
77381;BME280;66439;50.106;10.996;2023-03-14T06:05:13;96638.27;;;10.80;69.55
77381;BME280;66439;50.106;10.996;2023-03-14T06:07:16;96632.33;;;10.81;69.65
77381;BME280;66439;50.106;10.996;2023-03-14T06:09:19;96623.84;;;10.82;69.53
77381;BME280;66439;50.106;10.996;2023-03-14T06:11:25;96625.26;;;10.81;69.55
77381;BME280;66439;50.106;10.996;2023-03-14T06:13:28;96625.02;;;10.79;69.51
77381;BME280;66439;50.106;10.996;2023-03-14T06:15:30;96617.90;;;10.77;69.43
77381;BME280;66439;50.106;10.996;2023-03-14T06:17:35;96612.73;;;10.76;69.36
77381;BME280;66439;50.106;10.996;2023-03-14T06:19:41;96610.10;;;10.78;69.57
77381;BME280;66439;50.106;10.996;2023-03-14T06:21:46;96605.09;;;10.77;69.47
77381;BME280;66439;50.106;10.996;2023-03-14T06:23:49;96599.58;;;10.78;69.47
77381;BME280;66439;50.106;10.996;2023-03-14T06:25:52;96601.78;;;10.76;69.76
77381;BME280;66439;50.106;10.996;2023-03-14T06:27:57;96601.68;;;10.74;69.71
77381;BME280;66439;50.106;10.996;2023-03-14T06:30:00;96600.79;;;10.74;69.70
77381;BME280;66439;50.106;10.996;2023-03-14T06:32:04;96605.88;;;10.73;69.79
77381;BME280;66439;50.106;10.996;2023-03-14T06:34:09;96605.50;;;10.70;69.66
77381;BME280;66439;50.106;10.996;2023-03-14T06:36:11;96604.63;;;10.67;69.73
77381;BME280;66439;50.106;10.996;2023-03-14T06:38:16;96607.49;;;10.66;69.66
77381;BME280;66439;50.106;10.996;2023-03-14T06:40:19;96607.40;;;10.64;69.72
77381;BME280;66439;50.106;10.996;2023-03-14T06:42:26;96607.46;;;10.62;69.68
77381;BME280;66439;50.106;10.996;2023-03-14T06:44:29;96604.54;;;10.62;69.76
77381;BME280;66439;50.106;10.996;2023-03-14T06:46:33;96604.45;;;10.66;69.82
77381;BME280;66439;50.106;10.996;2023-03-14T06:48:36;96603.20;;;10.69;69.73
77381;BME280;66439;50.106;10.996;2023-03-14T06:50:39;96605.18;;;10.73;69.65
77381;BME280;66439;50.106;10.996;2023-03-14T06:52:41;96602.92;;;10.75;69.73
77381;BME280;66439;50.106;10.996;2023-03-14T06:54:52;96607.23;;;10.78;69.72
77381;BME280;66439;50.106;10.996;2023-03-14T06:56:55;96607.17;;;10.80;69.69
77381;BME280;66439;50.106;10.996;2023-03-14T06:58:59;96604.55;;;10.82;69.66
77381;BME280;66439;50.106;10.996;2023-03-14T07:01:04;96602.35;;;10.83;69.57
77381;BME280;66439;50.106;10.996;2023-03-14T07:03:13;96602.61;;;10.86;69.60
77381;BME280;66439;50.106;10.996;2023-03-14T07:05:18;96601.38;;;10.85;69.47
77381;BME280;66439;50.106;10.996;2023-03-14T07:07:21;96600.81;;;10.86;69.38
77381;BME280;66439;50.106;10.996;2023-03-14T07:09:23;96598.55;;;10.87;69.37
77381;BME280;66439;50.106;10.996;2023-03-14T07:11:31;96601.69;;;10.88;69.27
77381;BME280;66439;50.106;10.996;2023-03-14T07:13:36;96604.11;;;10.87;69.10
77381;BME280;66439;50.106;10.996;2023-03-14T07:15:40;96600.22;;;10.89;69.23
77381;BME280;66439;50.106;10.996;2023-03-14T07:17:44;96604.59;;;10.92;69.14
77381;BME280;66439;50.106;10.996;2023-03-14T07:19:47;96606.41;;;10.95;69.07
77381;BME280;66439;50.106;10.996;2023-03-14T07:21:52;96604.47;;;11.00;69.16
77381;BME280;66439;50.106;10.996;2023-03-14T07:23:57;96601.68;;;11.05;68.93
77381;BME280;66439;50.106;10.996;2023-03-14T07:26:00;96596.90;;;11.07;68.97
77381;BME280;66439;50.106;10.996;2023-03-14T07:28:04;96596.17;;;11.08;68.70
77381;BME280;66439;50.106;10.996;2023-03-14T07:30:08;96597.11;;;11.10;68.77
77381;BME280;66439;50.106;10.996;2023-03-14T07:32:11;96589.84;;;11.10;68.68
77381;BME280;66439;50.106;10.996;2023-03-14T07:34:17;96595.48;;;11.08;68.34
77381;BME280;66439;50.106;10.996;2023-03-14T07:36:20;96595.30;;;11.07;68.48
77381;BME280;66439;50.106;10.996;2023-03-14T07:38:24;96595.73;;;11.07;68.61
77381;BME280;66439;50.106;10.996;2023-03-14T07:40:50;96595.18;;;11.07;68.55
77381;BME280;66439;50.106;10.996;2023-03-14T07:42:52;96592.42;;;11.06;68.54
77381;BME280;66439;50.106;10.996;2023-03-14T07:45:13;96592.81;;;11.08;68.47
77381;BME280;66439;50.106;10.996;2023-03-14T07:47:16;96593.29;;;11.07;68.41
77381;BME280;66439;50.106;10.996;2023-03-14T07:49:18;96597.02;;;11.07;68.40
77381;BME280;66439;50.106;10.996;2023-03-14T07:51:21;96591.95;;;11.07;68.45
77381;BME280;66439;50.106;10.996;2023-03-14T07:53:24;96594.42;;;11.09;68.42
77381;BME280;66439;50.106;10.996;2023-03-14T07:55:27;96595.70;;;11.12;68.42
77381;BME280;66439;50.106;10.996;2023-03-14T07:57:29;96601.93;;;11.14;68.34
77381;BME280;66439;50.106;10.996;2023-03-14T07:59:34;96601.94;;;11.15;68.21
77381;BME280;66439;50.106;10.996;2023-03-14T08:01:36;96598.85;;;11.18;68.26
77381;BME280;66439;50.106;10.996;2023-03-14T08:03:39;96595.73;;;11.22;68.31
77381;BME280;66439;50.106;10.996;2023-03-14T08:05:42;96597.30;;;11.24;68.22
77381;BME280;66439;50.106;10.996;2023-03-14T08:07:45;96589.73;;;11.23;68.05
77381;BME280;66439;50.106;10.996;2023-03-14T08:09:48;96591.63;;;11.25;67.97
77381;BME280;66439;50.106;10.996;2023-03-14T08:11:52;96589.16;;;11.26;67.78
77381;BME280;66439;50.106;10.996;2023-03-14T08:13:55;96592.23;;;11.29;67.72
77381;BME280;66439;50.106;10.996;2023-03-14T08:15:58;96591.68;;;11.32;67.64
77381;BME280;66439;50.106;10.996;2023-03-14T08:18:00;96587.17;;;11.32;67.35
77381;BME280;66439;50.106;10.996;2023-03-14T08:20:03;96579.02;;;11.33;67.35
77381;BME280;66439;50.106;10.996;2023-03-14T08:22:11;96580.46;;;11.34;67.23
77381;BME280;66439;50.106;10.996;2023-03-14T08:24:14;96579.34;;;11.33;67.18
77381;BME280;66439;50.106;10.996;2023-03-14T08:26:17;96569.89;;;11.36;67.23
77381;BME280;66439;50.106;10.996;2023-03-14T08:28:19;96571.09;;;11.37;66.95
77381;BME280;66439;50.106;10.996;2023-03-14T08:30:22;96568.88;;;11.42;66.99
77381;BME280;66439;50.106;10.996;2023-03-14T08:32:25;96568.36;;;11.47;67.00
77381;BME280;66439;50.106;10.996;2023-03-14T08:34:29;96561.80;;;11.48;66.87
77381;BME280;66439;50.106;10.996;2023-03-14T08:36:32;96569.75;;;11.49;66.55
77381;BME280;66439;50.106;10.996;2023-03-14T08:38:35;96568.95;;;11.50;66.71
77381;BME280;66439;50.106;10.996;2023-03-14T08:40:38;96569.27;;;11.52;66.80
77381;BME280;66439;50.106;10.996;2023-03-14T08:42:43;96568.59;;;11.54;66.55
77381;BME280;66439;50.106;10.996;2023-03-14T08:44:45;96568.76;;;11.54;66.20
77381;BME280;66439;50.106;10.996;2023-03-14T08:46:49;96566.23;;;11.52;66.21
77381;BME280;66439;50.106;10.996;2023-03-14T08:48:51;96569.54;;;11.53;66.33
77381;BME280;66439;50.106;10.996;2023-03-14T08:51:13;96572.42;;;11.54;66.13
77381;BME280;66439;50.106;10.996;2023-03-14T08:53:16;96573.00;;;11.53;66.15
77381;BME280;66439;50.106;10.996;2023-03-14T08:55:19;96575.17;;;11.53;66.11
77381;BME280;66439;50.106;10.996;2023-03-14T08:57:22;96581.41;;;11.54;65.91
77381;BME280;66439;50.106;10.996;2023-03-14T08:59:29;96580.45;;;11.53;65.85
77381;BME280;66439;50.106;10.996;2023-03-14T09:01:32;96585.64;;;11.52;65.76
77381;BME280;66439;50.106;10.996;2023-03-14T09:03:35;96584.83;;;11.51;65.74
77381;BME280;66439;50.106;10.996;2023-03-14T09:05:37;96588.17;;;11.50;65.50
77381;BME280;66439;50.106;10.996;2023-03-14T09:07:41;96583.75;;;11.50;65.28
77381;BME280;66439;50.106;10.996;2023-03-14T09:09:44;96595.14;;;11.50;65.39
77381;BME280;66439;50.106;10.996;2023-03-14T09:11:47;96597.77;;;11.48;65.39
77381;BME280;66439;50.106;10.996;2023-03-14T09:13:50;96597.17;;;11.47;65.62
77381;BME280;66439;50.106;10.996;2023-03-14T09:15:54;96601.98;;;11.46;65.56
77381;BME280;66439;50.106;10.996;2023-03-14T09:17:57;96600.42;;;11.44;65.47
77381;BME280;66439;50.106;10.996;2023-03-14T09:20:02;96605.70;;;11.42;65.48
77381;BME280;66439;50.106;10.996;2023-03-14T09:22:09;96608.85;;;11.43;65.29
77381;BME280;66439;50.106;10.996;2023-03-14T09:24:11;96610.29;;;11.43;65.36
77381;BME280;66439;50.106;10.996;2023-03-14T09:26:14;96620.92;;;11.43;65.16
77381;BME280;66439;50.106;10.996;2023-03-14T09:28:17;96619.97;;;11.40;65.11
77381;BME280;66439;50.106;10.996;2023-03-14T09:30:20;96624.04;;;11.38;65.32
77381;BME280;66439;50.106;10.996;2023-03-14T09:32:25;96626.00;;;11.38;65.33
77381;BME280;66439;50.106;10.996;2023-03-14T09:34:28;96629.63;;;11.36;65.12
77381;BME280;66439;50.106;10.996;2023-03-14T09:36:31;96631.20;;;11.35;65.20
77381;BME280;66439;50.106;10.996;2023-03-14T09:38:35;96632.21;;;11.34;65.30
77381;BME280;66439;50.106;10.996;2023-03-14T09:40:39;96638.60;;;11.34;65.03
77381;BME280;66439;50.106;10.996;2023-03-14T09:42:41;96640.95;;;11.35;65.09
77381;BME280;66439;50.106;10.996;2023-03-14T09:45:00;96639.41;;;11.35;65.17
77381;BME280;66439;50.106;10.996;2023-03-14T09:47:11;96643.88;;;11.35;65.32
77381;BME280;66439;50.106;10.996;2023-03-14T09:49:25;96644.97;;;11.36;65.46
77381;BME280;66439;50.106;10.996;2023-03-14T09:51:29;96639.88;;;11.37;65.43
77381;BME280;66439;50.106;10.996;2023-03-14T09:53:43;96639.70;;;11.40;65.38
77381;BME280;66439;50.106;10.996;2023-03-14T09:55:49;96643.50;;;11.40;65.10
77381;BME280;66439;50.106;10.996;2023-03-14T09:57:57;96641.10;;;11.37;64.89
77381;BME280;66439;50.106;10.996;2023-03-14T10:00:09;96639.73;;;11.35;65.02
77381;BME280;66439;50.106;10.996;2023-03-14T10:02:19;96646.00;;;11.34;65.08
77381;BME280;66439;50.106;10.996;2023-03-14T10:04:22;96636.09;;;11.33;65.22
77381;BME280;66439;50.106;10.996;2023-03-14T10:06:28;96628.85;;;11.33;65.16
77381;BME280;66439;50.106;10.996;2023-03-14T10:08:32;96626.85;;;11.34;65.08
77381;BME280;66439;50.106;10.996;2023-03-14T10:10:35;96623.89;;;11.36;65.06
77381;BME280;66439;50.106;10.996;2023-03-14T10:12:38;96623.97;;;11.37;65.03
77381;BME280;66439;50.106;10.996;2023-03-14T10:14:50;96626.41;;;11.37;64.97
77381;BME280;66439;50.106;10.996;2023-03-14T10:16:53;96626.70;;;11.39;64.99
77381;BME280;66439;50.106;10.996;2023-03-14T10:19:16;96629.86;;;11.37;64.94
77381;BME280;66439;50.106;10.996;2023-03-14T10:21:29;96623.97;;;11.37;65.16
77381;BME280;66439;50.106;10.996;2023-03-14T10:23:33;96622.72;;;11.39;64.96
77381;BME280;66439;50.106;10.996;2023-03-14T10:25:39;96627.41;;;11.40;64.98
77381;BME280;66439;50.106;10.996;2023-03-14T10:27:42;96629.59;;;11.43;64.96
77381;BME280;66439;50.106;10.996;2023-03-14T10:29:53;96629.39;;;11.45;65.08
77381;BME280;66439;50.106;10.996;2023-03-14T10:32:05;96628.11;;;11.47;64.73
77381;BME280;66439;50.106;10.996;2023-03-14T10:34:16;96627.38;;;11.49;64.80
77381;BME280;66439;50.106;10.996;2023-03-14T10:36:21;96629.40;;;11.53;64.75
77381;BME280;66439;50.106;10.996;2023-03-14T10:38:31;96629.02;;;11.56;64.48
77381;BME280;66439;50.106;10.996;2023-03-14T10:40:42;96630.16;;;11.60;64.27
77381;BME280;66439;50.106;10.996;2023-03-14T10:42:49;96629.14;;;11.63;64.25
77381;BME280;66439;50.106;10.996;2023-03-14T10:45:00;96630.83;;;11.65;64.09
77381;BME280;66439;50.106;10.996;2023-03-14T10:47:04;96630.79;;;11.69;63.91
77381;BME280;66439;50.106;10.996;2023-03-14T10:49:27;96635.23;;;11.75;64.02
77381;BME280;66439;50.106;10.996;2023-03-14T10:51:30;96633.56;;;11.80;64.10
77381;BME280;66439;50.106;10.996;2023-03-14T10:53:48;96630.92;;;11.83;64.20
77381;BME280;66439;50.106;10.996;2023-03-14T10:55:53;96628.30;;;11.89;63.99
77381;BME280;66439;50.106;10.996;2023-03-14T10:58:39;96623.30;;;11.92;64.06
77381;BME280;66439;50.106;10.996;2023-03-14T11:00:43;96626.38;;;11.94;63.90
77381;BME280;66439;50.106;10.996;2023-03-14T11:03:10;96626.01;;;11.98;63.96
77381;BME280;66439;50.106;10.996;2023-03-14T11:05:43;96630.61;;;12.01;63.91
77381;BME280;66439;50.106;10.996;2023-03-14T11:07:50;96628.67;;;12.05;63.79
77381;BME280;66439;50.106;10.996;2023-03-14T11:10:03;96629.43;;;12.10;63.87
77381;BME280;66439;50.106;10.996;2023-03-14T11:14:39;96623.14;;;12.25;63.48